createdAt,value
2019-05-21T00:00:31.899Z,99606.59
2019-05-21T00:05:54.825Z,99599.11
2019-05-21T00:11:18.276Z,99601.02
2019-05-21T00:16:41.574Z,99591.88
2019-05-21T00:22:05.090Z,99601.31
2019-05-21T00:27:28.510Z,99609.31
2019-05-21T00:33:28.164Z,99612.91
2019-05-21T00:39:27.511Z,99617.58
2019-05-21T00:44:51.056Z,99617.34
2019-05-21T00:50:15.004Z,99625.89
2019-05-21T00:55:37.980Z,99631.72
2019-05-21T01:01:01.477Z,99631.13
2019-05-21T01:06:24.947Z,99625.29
2019-05-21T01:11:48.135Z,99625.21
2019-05-21T01:17:11.269Z,99626.81
2019-05-21T01:22:34.778Z,99628.52
2019-05-21T01:27:58.336Z,99632.41
2019-05-21T01:33:21.515Z,99630.47
2019-05-21T01:38:45.316Z,99625.81
2019-05-21T01:44:08.043Z,99626.01
2019-05-21T01:49:31.316Z,99622.42
2019-05-21T01:54:54.471Z,99614.98
2019-05-21T02:00:18.107Z,99615.76
2019-05-21T02:05:41.463Z,99613.32
2019-05-21T02:11:05.273Z,99619.91
2019-05-21T02:16:28.513Z,99621.84
2019-05-21T02:21:51.851Z,99627.95
2019-05-21T02:27:15.473Z,99628.05
2019-05-21T02:32:39.158Z,99631.38
2019-05-21T02:38:02.212Z,99633.16
2019-05-21T02:43:25.264Z,99639.79
2019-05-21T02:48:48.905Z,99645.41
2019-05-21T02:54:12.205Z,99642.09
2019-05-21T02:59:35.751Z,99648.89
2019-05-21T03:04:58.959Z,99660.20
2019-05-21T03:10:22.088Z,99666.95
2019-05-21T03:15:45.228Z,99678.09
2019-05-21T03:21:09.074Z,99678.80
2019-05-21T03:26:32.202Z,99682.79
2019-05-21T03:31:55.332Z,99690.54
2019-05-21T03:37:18.900Z,99690.80
2019-05-21T03:42:41.978Z,99691.36
2019-05-21T03:48:05.367Z,99697.00
2019-05-21T03:53:28.615Z,99708.22
2019-05-21T03:58:52.304Z,99706.31
2019-05-21T04:04:15.480Z,99696.45
2019-05-21T04:09:38.932Z,99710.75
2019-05-21T04:15:19.643Z,99702.35
2019-05-21T04:20:42.435Z,99703.22
2019-05-21T04:26:05.651Z,99707.09
2019-05-21T04:31:28.900Z,99715.97
2019-05-21T04:37:09.282Z,99719.81
2019-05-21T04:42:16.751Z,99712.95
2019-05-21T04:47:40.162Z,99716.01
2019-05-21T04:53:03.809Z,99717.99
2019-05-21T04:58:27.479Z,99717.73
2019-05-21T05:03:50.206Z,99719.11
2019-05-21T05:09:13.543Z,99718.11
2019-05-21T05:14:36.743Z,99723.21
2019-05-21T05:20:00.245Z,99736.59
2019-05-21T05:25:23.595Z,99722.77
2019-05-21T05:30:46.977Z,99726.27
2019-05-21T05:36:09.934Z,99727.91
2019-05-21T05:41:33.493Z,99729.00
2019-05-21T05:46:57.152Z,99734.03
2019-05-21T05:52:20.328Z,99744.91
2019-05-21T05:57:43.643Z,99742.68
2019-05-21T06:03:07.313Z,99750.73
2019-05-21T06:08:30.830Z,99744.48
2019-05-21T06:13:53.684Z,99746.98
2019-05-21T06:19:16.902Z,99749.28
2019-05-21T06:24:40.469Z,99745.73
2019-05-21T06:30:05.825Z,99750.72
2019-05-21T06:35:29.634Z,99751.07
2019-05-21T06:40:53.017Z,99747.27
2019-05-21T06:46:16.107Z,99750.08
2019-05-21T06:51:39.784Z,99761.72
2019-05-21T19:13:27.259Z,100047.83
2019-05-21T19:18:49.918Z,100055.70
2019-05-21T19:23:54.777Z,100060.78
2019-05-21T19:28:59.695Z,100054.75
2019-05-21T19:34:04.895Z,100059.56
2019-05-21T19:39:10.041Z,100072.08
2019-05-21T19:44:15.043Z,100090.44
2019-05-21T19:49:19.987Z,100111.33
2019-05-21T19:54:24.934Z,100117.17
2019-05-21T19:59:30.063Z,100120.21
2019-05-21T20:04:35.343Z,100126.37
2019-05-21T20:09:42.052Z,100121.88
2019-05-21T20:14:47.768Z,100126.37
2019-05-21T20:19:53.179Z,100141.94
2019-05-21T20:24:58.062Z,100138.09
2019-05-21T20:30:12.094Z,100131.22
2019-05-21T20:35:12.260Z,100145.42
2019-05-21T20:40:17.361Z,100143.19
2019-05-21T20:45:22.428Z,100152.86
2019-05-21T20:50:27.752Z,100160.09
2019-05-21T20:55:32.812Z,100168.95
2019-05-21T21:00:40.114Z,100163.30
2019-05-21T21:05:45.303Z,100159.67
2019-05-21T21:10:50.356Z,100154.65
2019-05-21T21:15:55.443Z,100161.77
2019-05-21T21:21:01.270Z,100165.83
2019-05-21T21:26:06.782Z,100153.21
2019-05-21T21:31:11.742Z,100152.68
2019-05-21T21:36:17.014Z,100157.22
2019-05-21T21:41:22.377Z,100165.23
2019-05-21T21:46:27.331Z,100168.20
2019-05-21T21:51:32.665Z,100168.12
2019-05-21T21:56:37.562Z,100165.59
2019-05-21T22:01:51.204Z,100172.80
2019-05-21T22:06:56.591Z,100179.95
2019-05-21T22:12:03.661Z,100178.31
2019-05-21T22:17:10.449Z,100195.32
2019-05-21T22:22:16.261Z,100193.71
2019-05-21T22:27:22.079Z,100200.03
2019-05-21T22:32:27.114Z,100208.38
2019-05-21T22:37:32.149Z,100194.02
2019-05-21T22:42:37.043Z,100192.33
2019-05-21T22:47:42.008Z,100189.23
2019-05-21T22:52:46.867Z,100179.76
2019-05-21T22:57:51.782Z,100186.67
2019-05-21T23:02:58.889Z,100187.28
2019-05-21T23:08:05.413Z,100185.94
2019-05-21T23:13:10.298Z,100187.66
2019-05-21T23:18:15.716Z,100193.50
2019-05-21T23:23:20.592Z,100189.08
2019-05-21T23:28:26.409Z,100184.92
2019-05-21T23:33:31.813Z,100181.67
2019-05-21T23:38:37.837Z,100180.41
2019-05-21T23:43:42.761Z,100190.13
2019-05-21T23:48:48.709Z,100187.80
2019-05-21T23:53:54.556Z,100183.91
2019-05-21T23:59:00.053Z,100180.88
